createdAt,value
2022-08-10T00:00:00.950Z,36.8650
2022-08-10T00:00:12.011Z,36.8650
2022-08-10T00:00:23.084Z,36.8660
2022-08-10T00:00:34.165Z,36.8660
2022-08-10T00:00:46.924Z,36.9240
2022-08-10T00:00:57.993Z,36.8960
2022-08-10T00:01:09.116Z,36.9020
2022-08-10T00:01:20.242Z,36.8880
2022-08-10T00:01:31.390Z,36.8710
2022-08-10T00:01:42.531Z,36.8720
2022-08-10T00:01:53.953Z,36.8720
2022-08-10T00:02:05.221Z,36.8880
2022-08-10T00:02:16.262Z,36.8830
2022-08-10T00:02:27.379Z,36.8830
2022-08-10T00:02:38.445Z,36.8830
2022-08-10T00:02:49.501Z,36.8900
2022-08-10T00:03:00.568Z,36.9300
2022-08-10T00:03:11.657Z,36.9410
2022-08-10T00:03:22.718Z,36.9300
2022-08-10T00:03:33.784Z,36.9020
2022-08-10T00:03:44.854Z,36.9470
2022-08-10T00:03:55.908Z,36.9710
2022-08-10T00:04:06.965Z,36.9360
2022-08-10T00:04:21.575Z,36.8900
2022-08-10T00:04:33.495Z,37.0750
2022-08-10T00:04:44.570Z,36.9770
2022-08-10T00:04:55.636Z,36.9300
2022-08-10T00:05:06.712Z,36.9180
2022-08-10T00:05:17.751Z,36.9120
2022-08-10T00:05:28.817Z,36.8940
2022-08-10T00:05:53.010Z,37.0930
2022-08-10T00:06:02.781Z,37.1770
2022-08-10T00:06:13.841Z,37.0740
2022-08-10T00:06:24.914Z,36.9920
2022-08-10T00:06:38.210Z,37.0440
2022-08-10T00:06:49.294Z,36.9740
2022-08-10T00:07:00.339Z,36.9570
2022-08-10T00:07:11.415Z,36.9620
2022-08-10T00:07:22.497Z,36.9790
2022-08-10T00:07:33.562Z,36.9780
2022-08-10T00:07:44.638Z,36.9720
2022-08-10T00:07:55.699Z,36.9570
2022-08-10T00:08:06.767Z,36.9450
2022-08-10T00:08:23.740Z,36.9300
2022-08-10T00:08:34.787Z,37.0810
2022-08-10T00:08:45.850Z,36.9940
2022-08-10T00:08:56.904Z,36.9240
2022-08-10T00:09:07.973Z,36.9130
2022-08-10T00:09:19.049Z,36.9190
2022-08-10T00:09:30.098Z,36.8960
2022-08-10T00:09:51.134Z,36.8940
2022-08-10T00:09:58.141Z,37.0700
2022-08-10T00:10:09.187Z,36.9890
2022-08-10T00:10:20.398Z,36.9130
2022-08-10T00:10:31.470Z,36.8880
2022-08-10T00:10:42.552Z,36.8650
2022-08-10T00:10:53.610Z,36.8600
2022-08-10T00:11:04.709Z,36.8540
2022-08-10T00:11:21.683Z,37.0690
2022-08-10T00:11:32.737Z,37.0110
2022-08-10T00:11:43.784Z,36.9530
2022-08-10T00:11:54.856Z,36.9300
2022-08-10T00:12:05.935Z,36.9130
2022-08-10T00:12:16.984Z,36.8960
2022-08-10T00:12:53.884Z,37.1050
2022-08-10T00:12:53.892Z,36.9130
2022-08-10T00:13:02.023Z,37.2250
2022-08-10T00:13:13.097Z,37.1320
2022-08-10T00:13:24.306Z,37.0440
2022-08-10T00:13:35.376Z,37.0040
2022-08-10T00:13:46.449Z,36.9850
2022-08-10T00:13:57.654Z,36.9790
2022-08-10T00:14:12.631Z,37.1250
2022-08-10T00:14:23.955Z,37.0760
2022-08-10T00:14:35.017Z,37.0360
2022-08-10T00:14:46.088Z,37.0100
2022-08-10T00:14:57.300Z,36.9890
2022-08-10T00:15:08.372Z,36.9890
2022-08-10T00:15:44.134Z,37.1660
2022-08-10T00:15:52.544Z,36.9710
2022-08-10T00:15:55.315Z,37.2630
2022-08-10T00:16:06.669Z,37.2170
2022-08-10T00:16:17.755Z,37.1060
2022-08-10T00:16:28.819Z,37.0650
2022-08-10T00:16:39.887Z,37.0360
2022-08-10T00:16:50.962Z,37.0360
2022-08-10T00:17:02.029Z,37.0210
2022-08-10T00:17:13.115Z,37.0100
2022-08-10T00:17:24.189Z,37.0040
2022-08-10T00:17:35.277Z,36.9940
2022-08-10T00:17:46.374Z,36.9940
2022-08-10T00:17:57.445Z,36.9770
2022-08-10T00:18:08.507Z,36.9470
2022-08-10T00:18:31.569Z,36.9580
2022-08-10T00:18:36.520Z,37.1270
2022-08-10T00:18:47.578Z,37.0520
2022-08-10T00:18:58.857Z,36.9940
2022-08-10T00:19:09.984Z,36.9630
2022-08-10T00:19:21.009Z,36.9580
2022-08-10T00:20:02.567Z,37.0280
2022-08-10T00:20:02.932Z,37.1450
2022-08-10T00:20:08.818Z,37.2320
2022-08-10T00:20:19.927Z,37.1280
2022-08-10T00:20:31.120Z,37.0230
2022-08-10T00:20:42.196Z,36.9820
2022-08-10T00:20:53.281Z,36.9520
2022-08-10T00:21:04.490Z,36.9630
2022-08-10T00:21:15.597Z,36.9420
2022-08-10T00:21:27.248Z,36.9370
2022-08-10T00:21:38.443Z,36.9540
2022-08-10T00:21:49.541Z,36.9240
2022-08-10T00:22:00.678Z,36.9180
2022-08-10T00:22:11.774Z,36.9210
2022-08-10T00:22:28.716Z,37.1390
2022-08-10T00:22:52.988Z,37.0750
2022-08-10T00:22:57.878Z,37.1970
2022-08-10T00:23:09.213Z,37.1510
2022-08-10T00:23:20.260Z,37.0520
2022-08-10T00:23:31.317Z,37.0100
2022-08-10T00:23:42.365Z,36.9990
2022-08-10T00:23:53.427Z,36.9880
2022-08-10T00:24:04.620Z,36.9990
2022-08-10T00:24:15.696Z,37.0160
2022-08-10T00:24:26.769Z,37.0580
2022-08-10T00:24:41.441Z,37.0810
2022-08-10T00:24:55.116Z,37.2950
2022-08-10T00:25:06.468Z,37.2510
2022-08-10T00:25:17.528Z,37.2350
2022-08-10T00:25:28.595Z,37.2050
2022-08-10T00:25:39.649Z,37.1880
2022-08-10T00:25:50.727Z,37.1990
2022-08-10T00:26:01.802Z,37.2290
2022-08-10T00:26:12.859Z,37.2380
2022-08-10T00:26:24.089Z,37.2560
2022-08-10T00:27:51.914Z,37.3170
2022-08-10T00:27:52.357Z,37.5010
2022-08-10T00:27:52.966Z,37.6500
2022-08-10T00:27:57.859Z,37.6550
2022-08-10T00:28:00.872Z,37.6220
2022-08-10T00:28:03.742Z,37.6910
2022-08-10T00:28:15.147Z,37.6800
2022-08-10T00:28:26.492Z,37.5090
2022-08-10T00:28:37.577Z,37.4390
2022-08-10T00:28:48.652Z,37.3950
2022-08-10T00:28:59.698Z,37.3720
2022-08-10T00:29:10.761Z,37.3810
2022-08-10T00:29:23.069Z,37.4250
2022-08-10T00:29:34.146Z,37.3840
2022-08-10T00:29:45.212Z,37.3950
2022-08-10T00:29:56.438Z,37.4060
2022-08-10T00:30:07.512Z,37.4250
2022-08-10T00:30:18.591Z,37.4250
2022-08-10T00:30:29.800Z,37.4060
2022-08-10T00:30:40.867Z,37.4370
2022-08-10T00:30:51.934Z,37.4370
2022-08-10T00:31:03.008Z,37.4250
2022-08-10T00:31:14.070Z,37.4190
2022-08-10T00:31:25.190Z,37.4140
2022-08-10T00:31:55.908Z,37.5760
2022-08-10T00:31:55.920Z,37.3960
2022-08-10T00:32:10.207Z,37.6750
2022-08-10T00:32:21.287Z,37.5710
2022-08-10T00:32:32.722Z,37.4890
2022-08-10T00:32:44.117Z,37.4570
2022-08-10T00:32:55.197Z,37.4070
2022-08-10T00:33:06.286Z,37.3830
2022-08-10T00:33:18.038Z,37.4250
2022-08-10T00:33:29.109Z,37.3960
2022-08-10T00:33:40.154Z,37.3960
2022-08-10T00:33:51.236Z,37.3890
2022-08-10T00:34:02.422Z,37.3830
2022-08-10T00:34:13.477Z,37.3890
2022-08-10T00:34:24.554Z,37.3810
2022-08-10T00:34:35.598Z,37.3810
2022-08-10T00:34:46.655Z,37.3690
2022-08-10T00:34:57.721Z,37.3690
2022-08-10T00:35:08.798Z,37.3810
2022-08-10T00:35:19.833Z,37.4030
2022-08-10T00:35:30.905Z,37.4200
2022-08-10T00:35:41.994Z,37.4360
2022-08-10T00:35:53.056Z,37.4630
2022-08-10T00:36:04.200Z,37.4800
2022-08-10T00:36:15.259Z,37.4910
2022-08-10T00:36:26.373Z,37.5040
2022-08-10T00:36:43.318Z,37.6730
2022-08-10T00:36:54.383Z,37.6010
2022-08-10T00:37:05.441Z,37.5210
2022-08-10T00:37:16.536Z,37.4980
2022-08-10T00:37:27.617Z,37.4850
2022-08-10T00:37:38.695Z,37.4830
2022-08-10T00:37:56.156Z,37.4770
2022-08-10T00:38:06.718Z,37.6630
2022-08-10T00:38:17.787Z,37.6080
2022-08-10T00:38:28.873Z,37.5380
2022-08-10T00:38:39.922Z,37.5060
2022-08-10T00:38:50.997Z,37.4710
2022-08-10T00:39:02.073Z,37.4360
2022-08-10T00:39:13.832Z,37.4390
2022-08-10T00:39:27.975Z,37.5870
2022-08-10T00:39:39.496Z,37.5150
2022-08-10T00:39:50.834Z,37.5000
2022-08-10T00:40:02.033Z,37.4890
2022-08-10T00:40:13.151Z,37.5000
2022-08-10T00:40:37.143Z,37.4940
2022-08-10T00:40:41.180Z,37.6750
2022-08-10T00:40:52.232Z,37.6140
2022-08-10T00:41:03.307Z,37.5550
2022-08-10T00:41:14.352Z,37.5380
2022-08-10T00:41:25.435Z,37.5210
2022-08-10T00:41:36.529Z,37.5380
2022-08-10T00:42:07.222Z,37.5210
2022-08-10T00:42:07.462Z,37.7200
2022-08-10T00:42:19.143Z,37.7470
2022-08-10T00:42:30.207Z,37.6140
2022-08-10T00:42:41.295Z,37.5440
2022-08-10T00:42:52.342Z,37.4940
2022-08-10T00:43:03.404Z,37.5060
2022-08-10T00:43:14.477Z,37.4900
2022-08-10T00:43:25.913Z,37.4790
2022-08-10T00:43:36.974Z,37.4790
2022-08-10T00:43:48.039Z,37.4560
2022-08-10T00:43:59.231Z,37.4370
2022-08-10T00:44:10.383Z,37.4310
2022-08-10T00:44:21.457Z,37.4400
2022-08-10T00:44:32.507Z,37.4350
2022-08-10T00:44:43.559Z,37.4170
2022-08-10T00:44:54.621Z,37.4100
2022-08-10T00:45:05.703Z,37.3990
2022-08-10T00:45:16.763Z,37.3910
2022-08-10T00:45:28.145Z,37.3910
2022-08-10T00:45:39.312Z,37.3960
2022-08-10T00:45:59.237Z,37.4300
2022-08-10T00:46:07.344Z,37.6090
2022-08-10T00:46:18.407Z,37.5310
2022-08-10T00:46:29.758Z,37.4690
2022-08-10T00:46:40.992Z,37.4460
2022-08-10T00:46:52.072Z,37.4190
2022-08-10T00:47:03.123Z,37.4130
2022-08-10T00:47:17.492Z,37.3910
2022-08-10T00:47:37.209Z,37.5930
2022-08-10T00:47:48.158Z,37.6560
2022-08-10T00:47:59.228Z,37.5440
2022-08-10T00:48:10.298Z,37.4800
2022-08-10T00:48:21.368Z,37.4520
2022-08-10T00:48:32.601Z,37.4610
2022-08-10T00:48:43.658Z,37.4630
2022-08-10T00:49:00.097Z,37.4860
2022-08-10T00:49:11.694Z,37.6880
2022-08-10T00:49:22.743Z,37.6250
2022-08-10T00:49:33.800Z,37.5530
2022-08-10T00:49:44.896Z,37.5200
2022-08-10T00:49:55.964Z,37.5090
2022-08-10T00:50:07.037Z,37.4960
2022-08-10T00:50:18.096Z,37.4900
2022-08-10T00:50:29.147Z,37.4960
2022-08-10T00:50:40.215Z,37.4960
2022-08-10T00:50:51.277Z,37.5200
2022-08-10T00:51:02.463Z,37.5610
2022-08-10T00:51:13.532Z,37.5430
2022-08-10T00:51:24.598Z,37.5470
2022-08-10T00:51:48.508Z,37.7330
2022-08-10T00:51:58.546Z,37.8070
2022-08-10T00:52:09.630Z,37.6780
2022-08-10T00:52:20.692Z,37.6230
2022-08-10T00:52:31.914Z,37.6230
2022-08-10T00:52:43.052Z,37.6230
2022-08-10T00:52:54.118Z,37.6200
2022-08-10T00:53:05.182Z,37.6310
2022-08-10T00:53:16.252Z,37.6290
2022-08-10T00:53:27.332Z,37.6240
2022-08-10T00:53:38.431Z,37.6350
2022-08-10T00:53:49.503Z,37.6310
2022-08-10T00:54:00.589Z,37.6250
2022-08-10T00:54:23.957Z,37.6440
2022-08-10T00:54:28.575Z,37.8400
2022-08-10T00:54:39.653Z,37.7510
2022-08-10T00:54:50.750Z,37.6920
2022-08-10T00:55:01.799Z,37.6640
2022-08-10T00:55:12.869Z,37.6520
2022-08-10T00:55:23.962Z,37.6750
2022-08-10T00:56:35.075Z,37.8950
2022-08-10T00:56:41.623Z,38.0000
2022-08-10T00:57:10.010Z,37.6980
2022-08-10T00:57:10.107Z,37.9600
2022-08-10T00:57:17.780Z,37.9950
2022-08-10T00:57:18.011Z,38.0000
2022-08-10T00:57:18.727Z,37.9780
2022-08-10T00:57:30.086Z,37.8960
2022-08-10T00:57:41.162Z,37.7840
2022-08-10T00:57:54.866Z,37.7170
2022-08-10T00:58:06.868Z,37.8380
2022-08-10T00:58:17.939Z,37.7740
2022-08-10T00:58:28.994Z,37.7280
2022-08-10T00:58:40.068Z,37.7220
2022-08-10T00:58:51.136Z,37.6980
2022-08-10T00:59:02.198Z,37.6820
2022-08-10T00:59:13.620Z,37.6770
2022-08-10T00:59:24.707Z,37.6920
2022-08-10T00:59:35.777Z,37.6810
2022-08-10T00:59:58.048Z,37.8860
2022-08-10T01:00:09.699Z,37.9780
2022-08-10T01:00:20.769Z,37.8750
2022-08-10T01:00:31.832Z,37.7960
2022-08-10T01:00:42.904Z,37.7730
2022-08-10T01:00:54.040Z,37.7560
2022-08-10T01:01:05.173Z,37.7500
2022-08-10T01:02:07.786Z,37.7490
2022-08-10T01:02:08.997Z,37.9250
2022-08-10T01:02:09.591Z,38.0100
2022-08-10T01:02:11.449Z,38.0520
2022-08-10T01:02:22.762Z,38.0750
2022-08-10T01:02:34.157Z,37.9400
2022-08-10T01:02:45.513Z,37.8870
2022-08-10T01:02:56.582Z,37.8530
2022-08-10T01:03:07.636Z,37.8280
2022-08-10T01:03:18.723Z,37.8220
2022-08-10T01:04:36.174Z,38.0040
2022-08-10T01:04:40.122Z,38.1670
2022-08-10T01:04:57.814Z,38.1110
2022-08-10T01:04:58.514Z,38.0700
2022-08-10T01:04:59.815Z,38.1950
2022-08-10T01:05:02.268Z,38.2340
2022-08-10T01:05:13.624Z,38.1520
2022-08-10T01:05:24.688Z,38.0230
2022-08-10T01:05:36.189Z,37.9730
2022-08-10T01:05:53.170Z,38.1310
2022-08-10T01:06:04.340Z,38.0700
2022-08-10T01:06:15.403Z,37.9890
2022-08-10T01:06:26.480Z,37.9390
2022-08-10T01:06:37.573Z,37.9120
2022-08-10T01:06:48.659Z,37.9120
2022-08-10T01:06:59.862Z,37.9290
2022-08-10T01:07:10.916Z,37.9230
2022-08-10T01:07:21.991Z,37.9140
2022-08-10T01:07:33.077Z,37.9090
2022-08-10T01:07:44.152Z,37.9120
2022-08-10T01:07:55.222Z,37.8880
2022-08-10T01:08:06.414Z,37.8820
2022-08-10T01:08:17.493Z,37.8810
2022-08-10T01:08:28.564Z,37.8530
2022-08-10T01:08:39.641Z,37.8280
2022-08-10T01:08:50.709Z,37.8110
2022-08-10T01:09:01.770Z,37.8090
2022-08-10T01:09:12.839Z,37.7900
2022-08-10T01:09:23.900Z,37.7840
2022-08-10T01:09:34.965Z,37.7780
2022-08-10T01:09:55.585Z,37.7510
2022-08-10T01:10:03.031Z,37.9200
2022-08-10T01:10:14.071Z,37.8370
2022-08-10T01:10:25.136Z,37.7620
2022-08-10T01:10:36.214Z,37.7340
2022-08-10T01:10:47.277Z,37.7040
2022-08-10T01:10:58.339Z,37.6940
2022-08-10T01:12:37.095Z,37.6880
2022-08-10T01:12:37.270Z,37.8680
2022-08-10T01:12:38.352Z,37.9500
2022-08-10T01:12:38.611Z,37.9890
2022-08-10T01:12:39.374Z,37.9830
2022-08-10T01:12:41.036Z,38.0530
2022-08-10T01:12:51.705Z,38.0570
2022-08-10T01:13:03.100Z,37.9510
2022-08-10T01:13:14.301Z,37.8580
2022-08-10T01:13:25.351Z,37.8090
2022-08-10T01:13:36.421Z,37.7790
2022-08-10T01:13:47.500Z,37.7610
2022-08-10T01:13:59.259Z,37.7890
2022-08-10T01:14:10.314Z,37.7550
2022-08-10T01:14:21.404Z,37.7550
2022-08-10T01:14:32.486Z,37.7550
2022-08-10T01:14:43.550Z,37.7550
2022-08-10T01:14:54.661Z,37.7660
2022-08-10T01:15:05.711Z,37.7560
2022-08-10T01:15:16.767Z,37.7670
2022-08-10T01:15:27.861Z,37.7500
2022-08-10T01:15:38.927Z,37.7790
2022-08-10T01:15:50.021Z,37.7730
2022-08-10T01:16:01.071Z,37.7840
2022-08-10T01:16:13.341Z,37.7840
2022-08-10T01:16:25.170Z,37.8700
2022-08-10T01:16:36.210Z,37.8410
2022-08-10T01:16:47.281Z,37.8170
2022-08-10T01:16:58.334Z,37.8410
2022-08-10T01:17:09.441Z,37.8810
2022-08-10T01:17:20.502Z,37.8700
2022-08-10T01:17:50.003Z,38.0410
2022-08-10T01:17:50.439Z,37.8650
2022-08-10T01:18:02.291Z,38.0610
2022-08-10T01:18:13.361Z,37.9390
2022-08-10T01:18:24.431Z,37.8880
2022-08-10T01:18:37.857Z,37.8880
2022-08-10T01:18:49.482Z,37.9710
2022-08-10T01:19:00.901Z,37.9000
2022-08-10T01:19:12.203Z,37.8820
2022-08-10T01:19:23.269Z,37.8410
2022-08-10T01:19:34.319Z,37.8350
2022-08-10T01:19:45.379Z,37.8350
2022-08-10T01:19:56.442Z,37.8410
2022-08-10T01:20:07.545Z,37.8280
2022-08-10T01:20:30.548Z,37.8170
2022-08-10T01:20:35.701Z,37.9990
2022-08-10T01:20:46.782Z,37.9230
2022-08-10T01:20:57.832Z,37.8530
2022-08-10T01:21:08.909Z,37.8350
2022-08-10T01:21:19.972Z,37.8280
2022-08-10T01:21:31.044Z,37.8410
2022-08-10T01:21:46.222Z,37.8170
2022-08-10T01:21:59.064Z,37.9930
2022-08-10T01:22:10.154Z,37.9180
2022-08-10T01:22:21.232Z,37.8580
2022-08-10T01:22:32.462Z,37.8350
2022-08-10T01:22:43.702Z,37.8280
2022-08-10T01:22:54.765Z,37.8050
2022-08-10T01:23:05.969Z,37.8000
2022-08-10T01:23:18.127Z,37.8410
2022-08-10T01:23:29.207Z,37.8170
2022-08-10T01:23:40.258Z,37.8220
2022-08-10T01:23:51.317Z,37.8350
2022-08-10T01:24:02.370Z,37.8220
2022-08-10T01:24:13.436Z,37.8280
2022-08-10T01:24:25.085Z,37.8470
2022-08-10T01:24:36.769Z,37.8880
2022-08-10T01:24:47.837Z,37.8650
2022-08-10T01:24:58.905Z,37.8530
2022-08-10T01:25:10.255Z,37.8300
2022-08-10T01:25:21.338Z,37.8300
2022-08-10T01:25:32.397Z,37.8360
2022-08-10T01:26:10.806Z,37.9880
2022-08-10T01:26:11.615Z,37.8170
2022-08-10T01:26:31.536Z,38.1190
2022-08-10T01:26:34.387Z,38.1690
2022-08-10T01:26:48.458Z,38.1500
2022-08-10T01:27:00.325Z,38.0440
2022-08-10T01:27:11.431Z,37.9680
2022-08-10T01:27:27.199Z,37.9510
2022-08-10T01:27:39.751Z,38.0910
2022-08-10T01:27:50.835Z,38.0320
2022-08-10T01:28:01.877Z,37.9470
2022-08-10T01:28:12.939Z,37.9180
2022-08-10T01:28:23.992Z,37.9130
2022-08-10T01:28:35.070Z,37.9300
2022-08-10T01:28:46.147Z,37.9410
2022-08-10T01:28:57.224Z,37.9390
2022-08-10T01:29:08.290Z,37.9300
2022-08-10T01:29:19.380Z,37.9180
2022-08-10T01:29:30.469Z,37.9070
2022-08-10T01:29:41.540Z,37.9030
2022-08-10T01:29:52.607Z,37.8970
2022-08-10T01:30:03.683Z,37.8740
2022-08-10T01:30:14.885Z,37.8860
2022-08-10T01:30:25.966Z,37.9140
2022-08-10T01:30:37.059Z,37.9030
2022-08-10T01:30:48.129Z,37.9270
2022-08-10T01:31:01.137Z,37.9670
2022-08-10T01:31:12.225Z,37.9270
2022-08-10T01:31:23.302Z,37.8970
2022-08-10T01:31:34.356Z,37.8860
2022-08-10T01:31:45.445Z,37.8630
2022-08-10T01:31:56.506Z,37.8630
2022-08-10T01:32:08.900Z,37.8690
2022-08-10T01:32:20.187Z,37.9090
2022-08-10T01:32:31.270Z,37.8650
2022-08-10T01:32:42.338Z,37.8360
2022-08-10T01:32:53.393Z,37.8250
2022-08-10T01:33:04.620Z,37.8110
2022-08-10T01:33:16.079Z,37.8110
2022-08-10T01:33:58.378Z,37.9930
2022-08-10T01:33:58.976Z,37.8350
2022-08-10T01:34:02.447Z,38.0750
2022-08-10T01:34:13.891Z,37.9990
2022-08-10T01:34:24.965Z,37.8700
2022-08-10T01:34:36.162Z,37.8300
2022-08-10T01:34:47.231Z,37.8170
2022-08-10T01:34:58.306Z,37.8170
2022-08-10T01:35:09.390Z,37.8170
2022-08-10T01:35:21.425Z,37.8530
2022-08-10T01:35:32.506Z,37.8120
2022-08-10T01:35:43.578Z,37.8110
2022-08-10T01:35:54.664Z,37.8170
2022-08-10T01:36:05.847Z,37.7940
2022-08-10T01:36:16.934Z,37.8110
2022-08-10T01:36:32.531Z,37.7880
2022-08-10T01:36:43.814Z,37.9630
2022-08-10T01:36:54.868Z,37.8700
2022-08-10T01:37:05.910Z,37.8110
2022-08-10T01:37:16.950Z,37.7940
2022-08-10T01:37:28.042Z,37.8050
2022-08-10T01:37:39.130Z,37.8000
2022-08-10T01:37:51.877Z,37.7940
2022-08-10T01:38:03.551Z,37.8750
2022-08-10T01:38:14.643Z,37.8050
2022-08-10T01:38:25.721Z,37.7770
2022-08-10T01:38:36.803Z,37.7560
2022-08-10T01:38:47.873Z,37.7560
2022-08-10T01:38:58.962Z,37.7390
2022-08-10T01:39:10.348Z,37.7330
2022-08-10T01:39:21.449Z,37.7560
2022-08-10T01:39:32.579Z,37.7440
2022-08-10T01:39:43.699Z,37.7500
2022-08-10T01:39:54.852Z,37.7500
2022-08-10T01:40:05.944Z,37.7770
2022-08-10T01:40:17.019Z,37.7820
2022-08-10T01:40:28.059Z,37.7940
2022-08-10T01:40:39.661Z,37.7770
2022-08-10T01:40:50.726Z,37.8170
2022-08-10T01:41:01.791Z,37.8000
2022-08-10T01:41:13.036Z,37.7820
2022-08-10T01:41:24.670Z,37.8050
2022-08-10T01:41:41.808Z,37.8280
2022-08-10T01:41:52.664Z,37.9820
2022-08-10T01:42:03.722Z,37.9180
2022-08-10T01:42:14.785Z,37.8590
2022-08-10T01:42:25.969Z,37.8650
2022-08-10T01:42:37.228Z,37.8470
2022-08-10T01:42:48.303Z,37.8530
2022-08-10T01:43:07.908Z,37.8300
2022-08-10T01:43:16.306Z,38.0220
2022-08-10T01:43:27.365Z,37.9620
2022-08-10T01:43:38.442Z,37.8800
2022-08-10T01:43:49.513Z,37.8530
2022-08-10T01:44:03.586Z,37.8420
2022-08-10T01:44:15.277Z,37.9650
2022-08-10T01:44:26.341Z,37.9000
2022-08-10T01:44:37.447Z,37.8590
2022-08-10T01:44:48.481Z,37.8470
2022-08-10T01:44:59.538Z,37.8530
2022-08-10T01:45:10.610Z,37.8360
2022-08-10T01:45:21.678Z,37.8360
2022-08-10T01:45:45.488Z,37.8250
2022-08-10T01:45:49.693Z,38.0170
2022-08-10T01:46:00.753Z,37.9500
2022-08-10T01:46:11.833Z,37.8800
2022-08-10T01:46:22.893Z,37.8630
2022-08-10T01:46:33.962Z,37.8690
2022-08-10T01:46:45.054Z,37.8570
2022-08-10T01:46:56.873Z,37.8690
2022-08-10T01:47:08.140Z,37.9090
2022-08-10T01:47:22.402Z,37.9070
2022-08-10T01:47:33.760Z,38.0530
2022-08-10T01:47:44.858Z,37.9800
2022-08-10T01:47:55.931Z,37.9510
2022-08-10T01:48:16.819Z,37.9390
2022-08-10T01:48:23.933Z,38.1260
2022-08-10T01:48:35.441Z,38.0600
2022-08-10T01:48:46.518Z,38.0030
2022-08-10T01:48:57.577Z,37.9450
2022-08-10T01:49:08.709Z,37.9180
2022-08-10T01:49:19.801Z,37.9010
2022-08-10T01:49:30.872Z,37.8950
2022-08-10T01:49:41.931Z,37.8970
2022-08-10T01:49:52.986Z,37.8800
2022-08-10T01:50:04.068Z,37.8740
2022-08-10T01:50:15.130Z,37.8690
2022-08-10T01:50:26.210Z,37.8800
2022-08-10T01:50:59.802Z,37.8690
2022-08-10T01:51:00.218Z,38.0550
2022-08-10T01:51:11.373Z,38.1520
2022-08-10T01:51:22.421Z,38.0380
2022-08-10T01:51:33.523Z,37.9620
2022-08-10T01:51:44.578Z,37.9070
2022-08-10T01:51:55.617Z,37.8840
2022-08-10T01:52:06.807Z,37.8710
2022-08-10T01:52:18.239Z,37.8690
2022-08-10T01:52:29.460Z,37.9030
2022-08-10T01:52:40.512Z,37.8770
2022-08-10T01:52:51.769Z,37.8860
2022-08-10T01:53:02.829Z,37.8740
2022-08-10T01:53:13.907Z,37.8570
2022-08-10T01:53:25.007Z,37.8440
2022-08-10T01:53:39.951Z,37.8570
2022-08-10T01:53:53.009Z,38.0470
2022-08-10T01:54:04.070Z,37.9830
2022-08-10T01:54:15.131Z,37.9130
2022-08-10T01:54:26.188Z,37.8900
2022-08-10T01:54:37.250Z,37.8770
2022-08-10T01:54:48.333Z,37.8950
2022-08-10T01:54:59.426Z,37.8950
2022-08-10T01:55:10.522Z,37.8950
2022-08-10T01:55:21.569Z,37.8900
2022-08-10T01:55:32.640Z,37.8900
2022-08-10T01:55:43.679Z,37.8950
2022-08-10T01:55:54.749Z,37.8950
2022-08-10T01:56:05.830Z,37.8950
2022-08-10T01:56:16.896Z,37.8840
2022-08-10T01:56:27.972Z,37.8970
2022-08-10T01:56:39.036Z,37.8910
2022-08-10T01:56:50.103Z,37.8950
2022-08-10T01:57:01.187Z,37.9010
2022-08-10T01:57:12.591Z,37.9130
2022-08-10T01:57:23.668Z,37.9240
2022-08-10T01:57:34.718Z,37.9410
2022-08-10T01:57:45.784Z,37.9410
2022-08-10T01:57:56.880Z,37.9410
2022-08-10T01:58:07.938Z,37.9360
2022-08-10T01:58:19.008Z,37.9300
2022-08-10T01:58:30.051Z,37.9010
2022-08-10T01:58:42.834Z,37.9770
2022-08-10T01:58:53.920Z,37.9710
2022-08-10T01:59:04.979Z,37.9390
2022-08-10T01:59:16.177Z,37.9570
2022-08-10T01:59:27.240Z,37.9510
2022-08-10T01:59:38.325Z,37.9390
2022-08-10T01:59:58.748Z,37.9360
2022-08-10T02:00:06.359Z,38.1080
2022-08-10T02:00:17.572Z,38.0440
2022-08-10T02:00:28.630Z,37.9890
2022-08-10T02:00:39.701Z,37.9470
2022-08-10T02:00:50.802Z,37.9140
2022-08-10T02:01:01.953Z,37.9030
2022-08-10T02:01:17.274Z,37.8950
2022-08-10T02:01:28.512Z,38.0380
2022-08-10T02:01:39.644Z,37.9500
2022-08-10T02:01:50.716Z,37.9090
2022-08-10T02:02:01.826Z,37.8820
2022-08-10T02:02:12.895Z,37.8820
2022-08-10T02:02:23.965Z,37.8530
2022-08-10T02:02:35.151Z,37.8530
2022-08-10T02:02:46.307Z,37.8580
2022-08-10T02:02:57.379Z,37.8530
2022-08-10T02:03:08.442Z,37.8530
2022-08-10T02:03:19.643Z,37.8580
2022-08-10T02:03:30.712Z,37.8470
2022-08-10T02:04:01.602Z,37.8410
2022-08-10T02:04:04.128Z,38.0410
2022-08-10T02:04:15.726Z,38.1490
2022-08-10T02:04:26.770Z,38.0410
2022-08-10T02:04:37.847Z,37.9660
2022-08-10T02:04:48.929Z,37.9330
2022-08-10T02:05:00.017Z,37.9200
2022-08-10T02:05:11.078Z,37.9090
2022-08-10T02:05:22.240Z,37.9410
2022-08-10T02:05:33.311Z,37.9540
2022-08-10T02:05:44.361Z,37.9620
2022-08-10T02:05:55.421Z,37.9570
2022-08-10T02:06:06.469Z,37.9790
2022-08-10T02:06:17.533Z,37.9740
2022-08-10T02:06:28.608Z,37.9790
2022-08-10T02:06:39.685Z,37.9920
2022-08-10T02:06:50.762Z,37.9870
2022-08-10T02:07:01.855Z,37.9790
2022-08-10T02:07:12.948Z,37.9740
2022-08-10T02:07:24.030Z,37.9790
2022-08-10T02:07:36.332Z,37.9800
2022-08-10T02:07:49.816Z,38.1490
2022-08-10T02:08:00.935Z,38.0710
2022-08-10T02:08:11.993Z,38.0290
2022-08-10T02:08:23.078Z,38.0270
2022-08-10T02:08:34.159Z,38.0210
2022-08-10T02:08:45.203Z,38.0100
2022-08-10T02:09:05.796Z,37.9940
2022-08-10T02:09:13.191Z,38.1580
2022-08-10T02:09:24.271Z,38.0800
2022-08-10T02:09:35.347Z,38.0100
2022-08-10T02:09:46.420Z,37.9890
2022-08-10T02:09:57.475Z,37.9710
2022-08-10T02:10:08.541Z,37.9710
2022-08-10T02:10:19.621Z,37.9600
2022-08-10T02:10:30.724Z,37.9870
2022-08-10T02:10:41.816Z,38.0140
2022-08-10T02:10:52.868Z,38.0080
2022-08-10T02:11:03.921Z,38.0200
2022-08-10T02:11:14.984Z,38.0440
2022-08-10T02:11:26.038Z,38.0330
2022-08-10T02:12:06.515Z,38.2290
2022-08-10T02:12:07.889Z,38.3320
2022-08-10T02:12:16.917Z,38.3640
2022-08-10T02:12:28.006Z,38.2450
2022-08-10T02:12:39.077Z,38.1570
2022-08-10T02:12:50.176Z,38.1190
2022-08-10T02:13:01.311Z,38.1000
2022-08-10T02:13:12.376Z,38.1060
2022-08-10T02:13:23.429Z,38.0940
2022-08-10T02:13:34.494Z,38.1120
2022-08-10T02:13:45.556Z,38.1100
2022-08-10T02:13:56.627Z,38.1270
2022-08-10T02:14:07.697Z,38.1120
2022-08-10T02:14:18.744Z,38.1120
2022-08-10T02:14:33.429Z,38.1150
2022-08-10T02:14:45.738Z,38.3110
2022-08-10T02:14:56.798Z,38.2070
2022-08-10T02:15:07.864Z,38.1800
2022-08-10T02:15:18.908Z,38.1530
2022-08-10T02:15:29.961Z,38.1320
2022-08-10T02:15:41.028Z,38.1090
2022-08-10T02:16:01.336Z,38.3020
2022-08-10T02:16:13.747Z,38.3820
2022-08-10T02:16:24.807Z,38.2300
2022-08-10T02:16:35.867Z,38.1800
2022-08-10T02:16:46.934Z,38.1650
2022-08-10T02:16:57.999Z,38.1490
2022-08-10T02:17:09.069Z,38.1210
2022-08-10T02:18:00.282Z,38.3200
2022-08-10T02:18:00.466Z,38.3760
2022-08-10T02:18:01.941Z,38.4030
2022-08-10T02:18:13.364Z,38.3500
2022-08-10T02:18:24.417Z,38.2180
2022-08-10T02:18:35.481Z,38.1550
2022-08-10T02:18:46.567Z,38.1490
2022-08-10T02:18:57.642Z,38.1550
2022-08-10T02:19:08.724Z,38.1550
2022-08-10T02:19:23.388Z,38.3000
2022-08-10T02:19:34.439Z,38.2130
2022-08-10T02:19:45.506Z,38.1860
2022-08-10T02:19:56.579Z,38.1820
2022-08-10T02:20:07.649Z,38.1590
2022-08-10T02:20:18.717Z,38.1760
2022-08-10T02:20:31.434Z,38.1620
2022-08-10T02:20:42.963Z,38.2390
2022-08-10T02:20:54.036Z,38.1850
2022-08-10T02:21:05.112Z,38.1680
2022-08-10T02:21:16.178Z,38.1490
2022-08-10T02:21:27.223Z,38.1550
2022-08-10T02:21:38.304Z,38.1440
2022-08-10T02:22:36.359Z,38.3490
2022-08-10T02:22:45.756Z,38.4140
2022-08-10T02:22:46.185Z,38.4580
2022-08-10T02:22:46.290Z,38.4640
2022-08-10T02:22:57.345Z,38.3060
2022-08-10T02:23:08.421Z,38.2220
2022-08-10T02:23:19.533Z,38.1820
2022-08-10T02:23:30.613Z,38.1620
2022-08-10T02:23:41.692Z,38.1320
2022-08-10T02:23:59.575Z,38.1230
2022-08-10T02:24:09.846Z,38.3110
2022-08-10T02:24:20.903Z,38.2140
2022-08-10T02:24:31.956Z,38.1550
2022-08-10T02:24:43.043Z,38.1300